Hayward, Minnesota
Current Conditions -  °F | °C
As of 11:32 PM on Wednesday 17 Dec 2014 (Local Time) from KAEL Reporting Station
Overcast Overcast  
Wind Chill: 18°   Ceiling: 1400
Heat Index: 18°   Visibility: 10mi
Dew Point: 16°   Wind: 0mph
Humidity: 93%   Direction: NA
Pressure: 30.3"   Gusts: NA
Location:  43.65°N, 93.24°W
Report Text: KAEL 180532Z AUTO 00000KT 10SM OVC014 M08/M09 A3030 RMK AO2
Loading
Personal Weather Stations






























Interactive Weather Map New forecast layout! Learn more

10-Day Weather Forecast

Advertisements
Track Severe Weather on mobile